sensor_id;sensor_type;location;lat;lon;timestamp;temperature;humidity
8872;DHT22;4472;52.092;9.820;2023-06-26T00:02:08;20.90;99.90
8872;DHT22;4472;52.092;9.820;2023-06-26T00:04:55;20.90;99.90
8872;DHT22;4472;52.092;9.820;2023-06-26T00:07:43;20.90;99.90
8872;DHT22;4472;52.092;9.820;2023-06-26T00:10:31;20.90;99.90
8872;DHT22;4472;52.092;9.820;2023-06-26T00:13:18;20.90;99.90
8872;DHT22;4472;52.092;9.820;2023-06-26T00:16:05;20.90;99.90
8872;DHT22;4472;52.092;9.820;2023-06-26T00:18:53;20.80;99.90
8872;DHT22;4472;52.092;9.820;2023-06-26T00:21:40;20.90;99.90
8872;DHT22;4472;52.092;9.820;2023-06-26T00:24:33;20.90;99.90
8872;DHT22;4472;52.092;9.820;2023-06-26T00:31:03;20.80;99.90
8872;DHT22;4472;52.092;9.820;2023-06-26T00:33:50;20.90;99.90
8872;DHT22;4472;52.092;9.820;2023-06-26T00:36:37;20.90;99.90
8872;DHT22;4472;52.092;9.820;2023-06-26T00:39:25;20.90;99.90
8872;DHT22;4472;52.092;9.820;2023-06-26T00:42:13;21.00;99.90
8872;DHT22;4472;52.092;9.820;2023-06-26T00:45:00;21.00;99.90
8872;DHT22;4472;52.092;9.820;2023-06-26T00:48:25;21.00;99.90
8872;DHT22;4472;52.092;9.820;2023-06-26T00:51:12;21.00;99.90
8872;DHT22;4472;52.092;9.820;2023-06-26T00:54:00;21.00;99.90
8872;DHT22;4472;52.092;9.820;2023-06-26T00:56:48;21.00;99.90
8872;DHT22;4472;52.092;9.820;2023-06-26T00:59:36;21.00;99.90
8872;DHT22;4472;52.092;9.820;2023-06-26T01:02:24;20.90;99.90
8872;DHT22;4472;52.092;9.820;2023-06-26T01:05:13;20.90;99.90
8872;DHT22;4472;52.092;9.820;2023-06-26T01:08:07;21.00;99.90
8872;DHT22;4472;52.092;9.820;2023-06-26T01:10:59;20.90;99.90
8872;DHT22;4472;52.092;9.820;2023-06-26T01:13:46;20.90;99.90
8872;DHT22;4472;52.092;9.820;2023-06-26T01:16:35;20.90;99.90
8872;DHT22;4472;52.092;9.820;2023-06-26T01:19:24;21.00;99.90
8872;DHT22;4472;52.092;9.820;2023-06-26T01:22:16;21.00;99.90
8872;DHT22;4472;52.092;9.820;2023-06-26T01:25:21;21.00;99.90
8872;DHT22;4472;52.092;9.820;2023-06-26T01:28:14;21.00;99.90
8872;DHT22;4472;52.092;9.820;2023-06-26T01:31:02;21.00;99.90
8872;DHT22;4472;52.092;9.820;2023-06-26T01:33:51;21.00;99.90
8872;DHT22;4472;52.092;9.820;2023-06-26T01:36:38;21.00;99.90
8872;DHT22;4472;52.092;9.820;2023-06-26T01:39:25;21.00;99.90
8872;DHT22;4472;52.092;9.820;2023-06-26T01:42:13;20.90;99.90
8872;DHT22;4472;52.092;9.820;2023-06-26T01:45:05;20.90;99.90
8872;DHT22;4472;52.092;9.820;2023-06-26T01:47:56;20.90;99.90
8872;DHT22;4472;52.092;9.820;2023-06-26T01:50:44;20.90;99.90
8872;DHT22;4472;52.092;9.820;2023-06-26T01:53:36;20.90;99.90
8872;DHT22;4472;52.092;9.820;2023-06-26T01:56:26;20.90;99.90
8872;DHT22;4472;52.092;9.820;2023-06-26T01:59:15;20.90;99.90
8872;DHT22;4472;52.092;9.820;2023-06-26T02:02:06;20.90;99.90
8872;DHT22;4472;52.092;9.820;2023-06-26T02:04:54;20.90;99.90
8872;DHT22;4472;52.092;9.820;2023-06-26T02:07:41;20.80;99.90
8872;DHT22;4472;52.092;9.820;2023-06-26T02:10:29;20.80;99.90
8872;DHT22;4472;52.092;9.820;2023-06-26T02:13:16;20.80;99.90
8872;DHT22;4472;52.092;9.820;2023-06-26T02:16:04;20.80;99.90
8872;DHT22;4472;52.092;9.820;2023-06-26T02:18:52;20.90;99.90
8872;DHT22;4472;52.092;9.820;2023-06-26T02:21:39;20.90;99.90
8872;DHT22;4472;52.092;9.820;2023-06-26T02:24:26;20.80;99.90
8872;DHT22;4472;52.092;9.820;2023-06-26T02:27:15;20.80;99.90
8872;DHT22;4472;52.092;9.820;2023-06-26T02:30:03;20.80;99.90
8872;DHT22;4472;52.092;9.820;2023-06-26T02:32:50;20.80;99.90
8872;DHT22;4472;52.092;9.820;2023-06-26T02:35:39;20.80;99.90
8872;DHT22;4472;52.092;9.820;2023-06-26T02:38:26;20.70;99.90
8872;DHT22;4472;52.092;9.820;2023-06-26T02:41:13;20.70;99.90
8872;DHT22;4472;52.092;9.820;2023-06-26T02:44:00;20.70;99.90
8872;DHT22;4472;52.092;9.820;2023-06-26T02:46:47;20.70;99.90
8872;DHT22;4472;52.092;9.820;2023-06-26T02:49:35;20.60;99.90
8872;DHT22;4472;52.092;9.820;2023-06-26T02:52:23;20.50;99.90
8872;DHT22;4472;52.092;9.820;2023-06-26T02:55:11;20.40;99.90
8872;DHT22;4472;52.092;9.820;2023-06-26T02:57:58;20.40;99.90
8872;DHT22;4472;52.092;9.820;2023-06-26T03:00:45;20.30;99.90
8872;DHT22;4472;52.092;9.820;2023-06-26T03:03:32;20.30;99.90
8872;DHT22;4472;52.092;9.820;2023-06-26T03:06:26;20.30;99.90
8872;DHT22;4472;52.092;9.820;2023-06-26T03:09:14;20.30;99.90
8872;DHT22;4472;52.092;9.820;2023-06-26T03:12:03;20.30;99.90
8872;DHT22;4472;52.092;9.820;2023-06-26T03:14:50;20.30;99.90
8872;DHT22;4472;52.092;9.820;2023-06-26T03:17:39;20.20;99.90
8872;DHT22;4472;52.092;9.820;2023-06-26T03:20:26;20.20;99.90
8872;DHT22;4472;52.092;9.820;2023-06-26T03:23:13;20.20;99.90
8872;DHT22;4472;52.092;9.820;2023-06-26T03:26:02;20.20;99.90
8872;DHT22;4472;52.092;9.820;2023-06-26T03:28:49;20.30;99.90
8872;DHT22;4472;52.092;9.820;2023-06-26T03:31:36;20.30;99.90
8872;DHT22;4472;52.092;9.820;2023-06-26T03:34:23;19.70;99.90
8872;DHT22;4472;52.092;9.820;2023-06-26T03:37:10;20.40;99.90
8872;DHT22;4472;52.092;9.820;2023-06-26T03:39:57;20.50;99.90
8872;DHT22;4472;52.092;9.820;2023-06-26T03:42:46;20.50;99.90
8872;DHT22;4472;52.092;9.820;2023-06-26T03:45:33;20.50;99.90
8872;DHT22;4472;52.092;9.820;2023-06-26T03:48:20;20.50;99.90
8872;DHT22;4472;52.092;9.820;2023-06-26T03:51:07;20.50;99.90
8872;DHT22;4472;52.092;9.820;2023-06-26T03:53:54;20.50;99.90
8872;DHT22;4472;52.092;9.820;2023-06-26T03:56:42;20.60;99.90
8872;DHT22;4472;52.092;9.820;2023-06-26T03:59:30;20.60;99.90
8872;DHT22;4472;52.092;9.820;2023-06-26T04:02:17;20.70;99.90
8872;DHT22;4472;52.092;9.820;2023-06-26T04:05:05;20.70;99.90
8872;DHT22;4472;52.092;9.820;2023-06-26T04:07:52;20.70;99.90
8872;DHT22;4472;52.092;9.820;2023-06-26T04:10:39;20.80;99.90
8872;DHT22;4472;52.092;9.820;2023-06-26T04:13:27;20.80;99.90
8872;DHT22;4472;52.092;9.820;2023-06-26T04:16:15;20.80;99.90
8872;DHT22;4472;52.092;9.820;2023-06-26T04:19:02;20.90;99.90
8872;DHT22;4472;52.092;9.820;2023-06-26T04:21:50;20.90;99.90
8872;DHT22;4472;52.092;9.820;2023-06-26T04:24:37;20.90;99.90
8872;DHT22;4472;52.092;9.820;2023-06-26T04:27:27;20.90;99.90
8872;DHT22;4472;52.092;9.820;2023-06-26T04:30:16;21.00;99.90
8872;DHT22;4472;52.092;9.820;2023-06-26T04:33:04;21.00;99.90
8872;DHT22;4472;52.092;9.820;2023-06-26T04:35:52;21.00;99.90
8872;DHT22;4472;52.092;9.820;2023-06-26T04:38:39;21.00;99.90
8872;DHT22;4472;52.092;9.820;2023-06-26T04:41:26;21.00;99.90
8872;DHT22;4472;52.092;9.820;2023-06-26T04:44:13;21.00;99.90
8872;DHT22;4472;52.092;9.820;2023-06-26T04:47:00;21.10;99.90
8872;DHT22;4472;52.092;9.820;2023-06-26T04:49:50;21.10;99.90
8872;DHT22;4472;52.092;9.820;2023-06-26T04:52:37;21.10;99.90
8872;DHT22;4472;52.092;9.820;2023-06-26T04:55:24;21.10;99.90
8872;DHT22;4472;52.092;9.820;2023-06-26T04:58:11;21.10;99.90
8872;DHT22;4472;52.092;9.820;2023-06-26T05:00:59;21.10;99.90
8872;DHT22;4472;52.092;9.820;2023-06-26T05:03:46;21.10;99.90
8872;DHT22;4472;52.092;9.820;2023-06-26T05:06:34;21.00;99.90
8872;DHT22;4472;52.092;9.820;2023-06-26T05:09:22;21.00;99.90
8872;DHT22;4472;52.092;9.820;2023-06-26T05:12:09;21.10;99.90
8872;DHT22;4472;52.092;9.820;2023-06-26T05:14:57;21.20;99.90
8872;DHT22;4472;52.092;9.820;2023-06-26T05:17:45;21.30;99.90
8872;DHT22;4472;52.092;9.820;2023-06-26T05:20:32;21.30;99.90
8872;DHT22;4472;52.092;9.820;2023-06-26T05:23:21;21.40;99.90
8872;DHT22;4472;52.092;9.820;2023-06-26T05:26:09;21.50;99.90
8872;DHT22;4472;52.092;9.820;2023-06-26T05:28:57;21.60;99.90
8872;DHT22;4472;52.092;9.820;2023-06-26T05:31:45;21.70;99.90
8872;DHT22;4472;52.092;9.820;2023-06-26T05:34:33;21.80;99.90
8872;DHT22;4472;52.092;9.820;2023-06-26T05:37:22;21.80;99.90
8872;DHT22;4472;52.092;9.820;2023-06-26T05:40:12;22.00;99.90
8872;DHT22;4472;52.092;9.820;2023-06-26T05:42:59;22.10;99.90
8872;DHT22;4472;52.092;9.820;2023-06-26T05:45:47;22.20;99.90
8872;DHT22;4472;52.092;9.820;2023-06-26T05:48:35;22.30;99.90
8872;DHT22;4472;52.092;9.820;2023-06-26T05:51:22;22.40;99.90
8872;DHT22;4472;52.092;9.820;2023-06-26T05:54:10;22.60;99.90
8872;DHT22;4472;52.092;9.820;2023-06-26T05:57:01;22.70;99.90
8872;DHT22;4472;52.092;9.820;2023-06-26T05:59:49;22.80;99.90
8872;DHT22;4472;52.092;9.820;2023-06-26T06:02:36;22.90;99.90
8872;DHT22;4472;52.092;9.820;2023-06-26T06:05:23;23.10;99.90
8872;DHT22;4472;52.092;9.820;2023-06-26T06:08:10;23.10;99.90
8872;DHT22;4472;52.092;9.820;2023-06-26T06:10:59;23.30;99.90
8872;DHT22;4472;52.092;9.820;2023-06-26T06:13:47;23.50;99.90
8872;DHT22;4472;52.092;9.820;2023-06-26T06:16:34;23.60;99.90
8872;DHT22;4472;52.092;9.820;2023-06-26T06:19:23;24.10;99.90
8872;DHT22;4472;52.092;9.820;2023-06-26T06:22:10;23.80;99.90
8872;DHT22;4472;52.092;9.820;2023-06-26T06:24:57;23.90;99.90
8872;DHT22;4472;52.092;9.820;2023-06-26T06:27:44;24.00;99.90
8872;DHT22;4472;52.092;9.820;2023-06-26T06:30:33;24.10;99.90
8872;DHT22;4472;52.092;9.820;2023-06-26T06:33:20;24.30;99.90
8872;DHT22;4472;52.092;9.820;2023-06-26T06:36:07;24.40;99.90
8872;DHT22;4472;52.092;9.820;2023-06-26T06:38:54;24.50;99.90
8872;DHT22;4472;52.092;9.820;2023-06-26T06:41:41;24.60;99.90
8872;DHT22;4472;52.092;9.820;2023-06-26T06:44:28;24.70;99.90
8872;DHT22;4472;52.092;9.820;2023-06-26T06:47:17;24.80;99.90
8872;DHT22;4472;52.092;9.820;2023-06-26T06:50:05;24.90;99.90
8872;DHT22;4472;52.092;9.820;2023-06-26T06:52:54;25.00;99.90
8872;DHT22;4472;52.092;9.820;2023-06-26T06:55:42;25.00;99.90
8872;DHT22;4472;52.092;9.820;2023-06-26T06:58:29;25.10;99.90
8872;DHT22;4472;52.092;9.820;2023-06-26T07:01:19;25.20;99.90
8872;DHT22;4472;52.092;9.820;2023-06-26T07:04:08;25.30;99.90
8872;DHT22;4472;52.092;9.820;2023-06-26T07:06:55;25.40;99.90
8872;DHT22;4472;52.092;9.820;2023-06-26T07:09:42;25.50;99.90
8872;DHT22;4472;52.092;9.820;2023-06-26T07:12:29;25.50;99.90
8872;DHT22;4472;52.092;9.820;2023-06-26T07:15:17;25.60;99.90
8872;DHT22;4472;52.092;9.820;2023-06-26T07:18:04;25.60;99.90
8872;DHT22;4472;52.092;9.820;2023-06-26T07:20:52;25.70;99.90
8872;DHT22;4472;52.092;9.820;2023-06-26T07:23:40;25.70;99.90
8872;DHT22;4472;52.092;9.820;2023-06-26T07:26:27;25.80;99.90
8872;DHT22;4472;52.092;9.820;2023-06-26T07:29:14;25.80;99.90
8872;DHT22;4472;52.092;9.820;2023-06-26T07:32:01;25.90;99.90
8872;DHT22;4472;52.092;9.820;2023-06-26T07:34:48;25.90;99.90
8872;DHT22;4472;52.092;9.820;2023-06-26T07:37:37;26.00;99.90
8872;DHT22;4472;52.092;9.820;2023-06-26T07:40:25;26.10;99.90
8872;DHT22;4472;52.092;9.820;2023-06-26T07:43:12;26.10;99.90
8872;DHT22;4472;52.092;9.820;2023-06-26T07:45:59;26.20;99.90
8872;DHT22;4472;52.092;9.820;2023-06-26T07:48:46;26.30;99.90
8872;DHT22;4472;52.092;9.820;2023-06-26T07:51:33;26.30;99.90
8872;DHT22;4472;52.092;9.820;2023-06-26T07:54:22;26.50;99.90
8872;DHT22;4472;52.092;9.820;2023-06-26T07:57:09;26.50;99.90
8872;DHT22;4472;52.092;9.820;2023-06-26T07:59:57;26.60;99.90
8872;DHT22;4472;52.092;9.820;2023-06-26T08:02:45;26.70;99.90
8872;DHT22;4472;52.092;9.820;2023-06-26T08:05:32;26.70;99.90
8872;DHT22;4472;52.092;9.820;2023-06-26T08:08:19;26.80;99.80
8872;DHT22;4472;52.092;9.820;2023-06-26T08:11:08;26.80;99.60
8872;DHT22;4472;52.092;9.820;2023-06-26T08:13:55;26.70;99.40
8872;DHT22;4472;52.092;9.820;2023-06-26T08:16:43;26.80;99.90
8872;DHT22;4472;52.092;9.820;2023-06-26T08:19:30;26.90;99.90
8872;DHT22;4472;52.092;9.820;2023-06-26T08:22:17;26.90;98.80
8872;DHT22;4472;52.092;9.820;2023-06-26T08:25:05;26.90;98.10
8872;DHT22;4472;52.092;9.820;2023-06-26T08:27:54;26.90;98.40
8872;DHT22;4472;52.092;9.820;2023-06-26T08:30:41;27.00;98.40
8872;DHT22;4472;52.092;9.820;2023-06-26T08:33:28;27.00;98.70
8872;DHT22;4472;52.092;9.820;2023-06-26T08:36:15;27.00;97.80
8872;DHT22;4472;52.092;9.820;2023-06-26T08:39:03;27.00;97.10
8872;DHT22;4472;52.092;9.820;2023-06-26T08:41:51;27.00;97.90
8872;DHT22;4472;52.092;9.820;2023-06-26T08:44:39;27.00;98.20
8872;DHT22;4472;52.092;9.820;2023-06-26T08:47:27;27.10;99.20
8872;DHT22;4472;52.092;9.820;2023-06-26T08:50:14;27.20;98.70
8872;DHT22;4472;52.092;9.820;2023-06-26T08:53:07;27.20;98.20
8872;DHT22;4472;52.092;9.820;2023-06-26T08:55:57;27.20;98.50
8872;DHT22;4472;52.092;9.820;2023-06-26T08:58:45;27.30;99.00
8872;DHT22;4472;52.092;9.820;2023-06-26T09:01:34;27.30;98.90
8872;DHT22;4472;52.092;9.820;2023-06-26T09:04:21;27.40;99.40
8872;DHT22;4472;52.092;9.820;2023-06-26T09:07:09;27.40;97.90
8872;DHT22;4472;52.092;9.820;2023-06-26T09:09:56;27.40;98.70
8872;DHT22;4472;52.092;9.820;2023-06-26T09:12:46;27.40;97.50
8872;DHT22;4472;52.092;9.820;2023-06-26T09:15:37;27.40;98.00
8872;DHT22;4472;52.092;9.820;2023-06-26T09:18:26;27.50;99.00
8872;DHT22;4472;52.092;9.820;2023-06-26T09:21:14;27.60;98.60
8872;DHT22;4472;52.092;9.820;2023-06-26T09:24:01;27.60;97.80
8872;DHT22;4472;52.092;9.820;2023-06-26T09:26:49;27.50;97.80
8872;DHT22;4472;52.092;9.820;2023-06-26T09:29:37;27.40;97.50
8872;DHT22;4472;52.092;9.820;2023-06-26T09:32:24;27.40;98.70
8872;DHT22;4472;52.092;9.820;2023-06-26T09:35:15;27.50;98.20
8872;DHT22;4472;52.092;9.820;2023-06-26T09:38:02;27.50;97.40
8872;DHT22;4472;52.092;9.820;2023-06-26T09:40:50;27.60;98.40
8872;DHT22;4472;52.092;9.820;2023-06-26T09:43:45;27.80;98.40
8872;DHT22;4472;52.092;9.820;2023-06-26T09:46:32;27.90;96.60
8872;DHT22;4472;52.092;9.820;2023-06-26T09:49:20;27.90;96.30
8872;DHT22;4472;52.092;9.820;2023-06-26T09:52:08;27.90;96.90
8872;DHT22;4472;52.092;9.820;2023-06-26T09:55:08;27.90;95.80
8872;DHT22;4472;52.092;9.820;2023-06-26T09:57:56;27.90;95.60
8872;DHT22;4472;52.092;9.820;2023-06-26T10:00:46;27.80;94.60
8872;DHT22;4472;52.092;9.820;2023-06-26T10:03:33;27.60;95.50
8872;DHT22;4472;52.092;9.820;2023-06-26T10:06:24;27.30;96.10
8872;DHT22;4472;52.092;9.820;2023-06-26T10:09:17;26.90;96.50
8872;DHT22;4472;52.092;9.820;2023-06-26T10:12:08;26.60;96.50
8872;DHT22;4472;52.092;9.820;2023-06-26T10:14:59;26.30;97.30
8872;DHT22;4472;52.092;9.820;2023-06-26T10:17:47;26.10;97.30
8872;DHT22;4472;52.092;9.820;2023-06-26T10:20:35;26.10;97.70
8872;DHT22;4472;52.092;9.820;2023-06-26T10:23:23;26.00;98.10
8872;DHT22;4472;52.092;9.820;2023-06-26T10:26:14;25.90;96.50
8872;DHT22;4472;52.092;9.820;2023-06-26T10:29:03;25.70;96.70
8872;DHT22;4472;52.092;9.820;2023-06-26T10:31:54;25.60;97.50
8872;DHT22;4472;52.092;9.820;2023-06-26T10:34:43;25.50;97.40
8872;DHT22;4472;52.092;9.820;2023-06-26T10:37:43;25.50;98.90
8872;DHT22;4472;52.092;9.820;2023-06-26T10:40:41;25.50;99.90
8872;DHT22;4472;52.092;9.820;2023-06-26T10:43:31;25.70;99.90
8872;DHT22;4472;52.092;9.820;2023-06-26T10:46:18;25.80;99.90
8872;DHT22;4472;52.092;9.820;2023-06-26T10:49:12;25.80;99.90
8872;DHT22;4472;52.092;9.820;2023-06-26T10:52:01;25.70;99.90
8872;DHT22;4472;52.092;9.820;2023-06-26T10:54:48;25.40;99.90
8872;DHT22;4472;52.092;9.820;2023-06-26T10:57:36;25.10;99.90
8872;DHT22;4472;52.092;9.820;2023-06-26T11:00:25;25.00;99.90
8872;DHT22;4472;52.092;9.820;2023-06-26T11:03:23;25.00;99.90
8872;DHT22;4472;52.092;9.820;2023-06-26T11:06:11;25.10;99.90
8872;DHT22;4472;52.092;9.820;2023-06-26T11:09:07;25.20;99.90
8872;DHT22;4472;52.092;9.820;2023-06-26T11:11:58;25.30;99.90
8872;DHT22;4472;52.092;9.820;2023-06-26T11:14:48;25.50;99.90
8872;DHT22;4472;52.092;9.820;2023-06-26T11:17:37;25.60;99.90
8872;DHT22;4472;52.092;9.820;2023-06-26T11:20:24;25.80;99.90
8872;DHT22;4472;52.092;9.820;2023-06-26T11:23:12;25.90;99.90
8872;DHT22;4472;52.092;9.820;2023-06-26T11:26:13;25.90;99.90
8872;DHT22;4472;52.092;9.820;2023-06-26T11:29:00;25.80;99.90
8872;DHT22;4472;52.092;9.820;2023-06-26T11:31:47;25.70;99.90
8872;DHT22;4472;52.092;9.820;2023-06-26T11:34:35;25.50;99.90
8872;DHT22;4472;52.092;9.820;2023-06-26T11:37:24;25.30;99.90
8872;DHT22;4472;52.092;9.820;2023-06-26T11:40:19;25.10;99.90
8872;DHT22;4472;52.092;9.820;2023-06-26T11:43:07;24.90;99.90
8872;DHT22;4472;52.092;9.820;2023-06-26T11:45:54;24.70;99.90
8872;DHT22;4472;52.092;9.820;2023-06-26T11:48:42;24.50;99.90
8872;DHT22;4472;52.092;9.820;2023-06-26T11:51:31;24.30;99.90
8872;DHT22;4472;52.092;9.820;2023-06-26T11:54:26;24.10;99.90
8872;DHT22;4472;52.092;9.820;2023-06-26T11:57:14;24.00;99.90
8872;DHT22;4472;52.092;9.820;2023-06-26T12:00:11;24.00;99.90
8872;DHT22;4472;52.092;9.820;2023-06-26T12:02:58;24.00;99.90
8872;DHT22;4472;52.092;9.820;2023-06-26T12:05:46;24.00;99.90
8872;DHT22;4472;52.092;9.820;2023-06-26T12:08:35;24.10;99.90
8872;DHT22;4472;52.092;9.820;2023-06-26T12:11:23;24.30;99.90
8872;DHT22;4472;52.092;9.820;2023-06-26T12:14:11;24.50;99.90
8872;DHT22;4472;52.092;9.820;2023-06-26T12:17:04;24.80;99.90
8872;DHT22;4472;52.092;9.820;2023-06-26T12:19:54;24.90;99.90
8872;DHT22;4472;52.092;9.820;2023-06-26T12:22:41;24.90;99.90
8872;DHT22;4472;52.092;9.820;2023-06-26T12:25:32;25.10;99.90
8872;DHT22;4472;52.092;9.820;2023-06-26T12:28:19;25.20;99.90
8872;DHT22;4472;52.092;9.820;2023-06-26T12:31:13;25.20;99.90
8872;DHT22;4472;52.092;9.820;2023-06-26T12:34:01;25.20;99.90
8872;DHT22;4472;52.092;9.820;2023-06-26T12:36:49;25.10;99.90
8872;DHT22;4472;52.092;9.820;2023-06-26T12:39:47;25.10;99.90
8872;DHT22;4472;52.092;9.820;2023-06-26T12:42:36;25.20;99.90
8872;DHT22;4472;52.092;9.820;2023-06-26T12:45:23;25.30;99.90
8872;DHT22;4472;52.092;9.820;2023-06-26T12:48:12;25.20;99.90
8872;DHT22;4472;52.092;9.820;2023-06-26T12:50:59;25.30;99.90
8872;DHT22;4472;52.092;9.820;2023-06-26T12:53:46;25.20;99.90
8872;DHT22;4472;52.092;9.820;2023-06-26T12:56:33;25.20;99.90
8872;DHT22;4472;52.092;9.820;2023-06-26T12:59:22;25.10;99.90
8872;DHT22;4472;52.092;9.820;2023-06-26T13:02:09;25.10;99.90
8872;DHT22;4472;52.092;9.820;2023-06-26T13:04:58;25.10;99.90
8872;DHT22;4472;52.092;9.820;2023-06-26T13:07:45;24.90;99.90
8872;DHT22;4472;52.092;9.820;2023-06-26T13:10:32;24.80;99.80
8872;DHT22;4472;52.092;9.820;2023-06-26T13:13:21;24.60;99.90
8872;DHT22;4472;52.092;9.820;2023-06-26T13:16:09;24.80;99.90
8872;DHT22;4472;52.092;9.820;2023-06-26T13:18:58;25.00;99.90
8872;DHT22;4472;52.092;9.820;2023-06-26T13:21:49;25.20;99.90
8872;DHT22;4472;52.092;9.820;2023-06-26T13:24:36;25.40;99.60
8872;DHT22;4472;52.092;9.820;2023-06-26T13:27:23;25.40;99.20
8872;DHT22;4472;52.092;9.820;2023-06-26T13:30:11;25.60;99.50
8872;DHT22;4472;52.092;9.820;2023-06-26T13:33:00;25.70;97.30
8872;DHT22;4472;52.092;9.820;2023-06-26T13:35:48;25.60;97.90
8872;DHT22;4472;52.092;9.820;2023-06-26T13:38:35;25.60;98.70
8872;DHT22;4472;52.092;9.820;2023-06-26T13:41:23;25.70;97.70
8872;DHT22;4472;52.092;9.820;2023-06-26T13:44:10;25.70;96.60
8872;DHT22;4472;52.092;9.820;2023-06-26T13:46:57;25.90;97.20
8872;DHT22;4472;52.092;9.820;2023-06-26T13:49:48;26.00;96.30
8872;DHT22;4472;52.092;9.820;2023-06-26T13:52:35;26.10;95.30
8872;DHT22;4472;52.092;9.820;2023-06-26T13:55:22;26.00;94.60
8872;DHT22;4472;52.092;9.820;2023-06-26T13:58:10;26.00;94.80
8872;DHT22;4472;52.092;9.820;2023-06-26T14:00:57;25.90;95.20
8872;DHT22;4472;52.092;9.820;2023-06-26T14:03:44;25.80;94.10
8872;DHT22;4472;52.092;9.820;2023-06-26T14:06:33;25.90;94.80
8872;DHT22;4472;52.092;9.820;2023-06-26T14:09:20;25.90;94.50
8872;DHT22;4472;52.092;9.820;2023-06-26T14:12:08;25.90;95.00
8872;DHT22;4472;52.092;9.820;2023-06-26T14:14:55;26.00;94.60
8872;DHT22;4472;52.092;9.820;2023-06-26T14:17:42;26.20;94.80
8872;DHT22;4472;52.092;9.820;2023-06-26T14:20:29;26.30;94.00
8872;DHT22;4472;52.092;9.820;2023-06-26T14:23:22;26.40;94.30
8872;DHT22;4472;52.092;9.820;2023-06-26T14:26:09;26.40;93.40
8872;DHT22;4472;52.092;9.820;2023-06-26T14:28:57;26.40;92.80
8872;DHT22;4472;52.092;9.820;2023-06-26T14:31:44;26.40;92.50
8872;DHT22;4472;52.092;9.820;2023-06-26T14:34:31;26.40;91.80
8872;DHT22;4472;52.092;9.820;2023-06-26T14:37:18;26.50;90.60
8872;DHT22;4472;52.092;9.820;2023-06-26T14:40:08;26.40;90.70
8872;DHT22;4472;52.092;9.820;2023-06-26T14:42:56;26.30;91.00
8872;DHT22;4472;52.092;9.820;2023-06-26T14:45:43;26.10;91.40
8872;DHT22;4472;52.092;9.820;2023-06-26T14:48:30;25.90;91.50
8872;DHT22;4472;52.092;9.820;2023-06-26T14:51:17;25.70;92.60
8872;DHT22;4472;52.092;9.820;2023-06-26T14:54:04;25.70;91.80
8872;DHT22;4472;52.092;9.820;2023-06-26T14:56:53;25.50;90.70
8872;DHT22;4472;52.092;9.820;2023-06-26T14:59:40;25.30;91.90
8872;DHT22;4472;52.092;9.820;2023-06-26T15:02:27;25.20;92.40
8872;DHT22;4472;52.092;9.820;2023-06-26T15:05:14;25.00;92.30
8872;DHT22;4472;52.092;9.820;2023-06-26T15:08:01;24.90;92.50
8872;DHT22;4472;52.092;9.820;2023-06-26T15:10:48;24.80;93.10
8872;DHT22;4472;52.092;9.820;2023-06-26T15:13:37;24.70;93.00
8872;DHT22;4472;52.092;9.820;2023-06-26T15:16:24;24.80;93.10
8872;DHT22;4472;52.092;9.820;2023-06-26T15:19:11;25.00;93.40
8872;DHT22;4472;52.092;9.820;2023-06-26T15:21:58;25.30;93.10
8872;DHT22;4472;52.092;9.820;2023-06-26T15:24:45;25.60;92.70
8872;DHT22;4472;52.092;9.820;2023-06-26T15:27:33;25.50;91.80
8872;DHT22;4472;52.092;9.820;2023-06-26T15:30:21;25.30;91.20
8872;DHT22;4472;52.092;9.820;2023-06-26T15:33:08;25.00;92.30
8872;DHT22;4472;52.092;9.820;2023-06-26T15:35:56;24.90;91.90
8872;DHT22;4472;52.092;9.820;2023-06-26T15:38:43;24.90;92.10
8872;DHT22;4472;52.092;9.820;2023-06-26T15:41:30;24.90;92.80
8872;DHT22;4472;52.092;9.820;2023-06-26T15:44:18;24.90;92.90
8872;DHT22;4472;52.092;9.820;2023-06-26T15:47:06;25.40;93.10
8872;DHT22;4472;52.092;9.820;2023-06-26T15:49:54;24.90;92.90
8872;DHT22;4472;52.092;9.820;2023-06-26T15:52:41;24.90;93.60
8872;DHT22;4472;52.092;9.820;2023-06-26T15:55:31;24.90;92.90
8872;DHT22;4472;52.092;9.820;2023-06-26T15:58:18;24.80;93.30
8872;DHT22;4472;52.092;9.820;2023-06-26T16:01:05;24.60;92.80
8872;DHT22;4472;52.092;9.820;2023-06-26T16:03:54;24.40;93.00
8872;DHT22;4472;52.092;9.820;2023-06-26T16:06:41;24.20;92.50
8872;DHT22;4472;52.092;9.820;2023-06-26T16:09:31;24.00;92.90
8872;DHT22;4472;52.092;9.820;2023-06-26T16:12:18;24.00;93.60
8872;DHT22;4472;52.092;9.820;2023-06-26T16:15:06;24.10;93.70
8872;DHT22;4472;52.092;9.820;2023-06-26T16:17:53;24.10;93.80
8872;DHT22;4472;52.092;9.820;2023-06-26T16:20:42;24.00;93.70
8872;DHT22;4472;52.092;9.820;2023-06-26T16:23:30;23.80;93.20
8872;DHT22;4472;52.092;9.820;2023-06-26T16:26:18;23.50;93.60
8872;DHT22;4472;52.092;9.820;2023-06-26T16:29:05;23.40;94.10
8872;DHT22;4472;52.092;9.820;2023-06-26T16:31:52;23.30;94.40
8872;DHT22;4472;52.092;9.820;2023-06-26T16:34:39;23.30;94.60
8872;DHT22;4472;52.092;9.820;2023-06-26T16:37:28;23.30;93.90
8872;DHT22;4472;52.092;9.820;2023-06-26T16:40:15;23.30;93.20
8872;DHT22;4472;52.092;9.820;2023-06-26T16:43:02;23.40;93.10
8872;DHT22;4472;52.092;9.820;2023-06-26T16:45:50;23.50;93.20
8872;DHT22;4472;52.092;9.820;2023-06-26T16:48:37;23.50;93.30
8872;DHT22;4472;52.092;9.820;2023-06-26T16:51:24;23.50;93.00
8872;DHT22;4472;52.092;9.820;2023-06-26T16:54:13;23.40;91.60
8872;DHT22;4472;52.092;9.820;2023-06-26T16:57:00;23.30;92.30
8872;DHT22;4472;52.092;9.820;2023-06-26T16:59:47;23.20;92.30
8872;DHT22;4472;52.092;9.820;2023-06-26T17:02:34;23.20;92.50
8872;DHT22;4472;52.092;9.820;2023-06-26T17:05:21;23.20;93.00
8872;DHT22;4472;52.092;9.820;2023-06-26T17:08:09;23.20;93.60
8872;DHT22;4472;52.092;9.820;2023-06-26T17:10:57;23.10;93.40
8872;DHT22;4472;52.092;9.820;2023-06-26T17:13:44;23.00;93.90
8872;DHT22;4472;52.092;9.820;2023-06-26T17:16:32;22.80;93.10
8872;DHT22;4472;52.092;9.820;2023-06-26T17:19:19;22.70;93.00
8872;DHT22;4472;52.092;9.820;2023-06-26T17:22:06;22.60;93.00
8872;DHT22;4472;52.092;9.820;2023-06-26T17:24:53;22.50;92.50
8872;DHT22;4472;52.092;9.820;2023-06-26T17:27:46;22.40;92.10
8872;DHT22;4472;52.092;9.820;2023-06-26T17:30:33;22.30;91.50
8872;DHT22;4472;52.092;9.820;2023-06-26T17:33:21;22.20;91.20
8872;DHT22;4472;52.092;9.820;2023-06-26T17:36:08;22.20;91.70
8872;DHT22;4472;52.092;9.820;2023-06-26T17:38:57;22.10;92.10
8872;DHT22;4472;52.092;9.820;2023-06-26T17:41:46;22.10;92.40
8872;DHT22;4472;52.092;9.820;2023-06-26T17:44:34;22.10;92.30
8872;DHT22;4472;52.092;9.820;2023-06-26T17:47:22;22.10;92.40
8872;DHT22;4472;52.092;9.820;2023-06-26T17:50:09;22.10;91.90
8872;DHT22;4472;52.092;9.820;2023-06-26T17:52:59;22.00;91.50
8872;DHT22;4472;52.092;9.820;2023-06-26T17:55:46;22.00;91.60
8872;DHT22;4472;52.092;9.820;2023-06-26T17:58:33;22.00;91.70
8872;DHT22;4472;52.092;9.820;2023-06-26T18:01:21;22.00;91.50
8872;DHT22;4472;52.092;9.820;2023-06-26T18:04:09;22.10;92.30
8872;DHT22;4472;52.092;9.820;2023-06-26T18:06:56;22.10;92.40
8872;DHT22;4472;52.092;9.820;2023-06-26T18:09:43;22.10;92.30
8872;DHT22;4472;52.092;9.820;2023-06-26T18:12:30;22.10;92.60
8872;DHT22;4472;52.092;9.820;2023-06-26T18:15:18;22.00;92.90
8872;DHT22;4472;52.092;9.820;2023-06-26T18:18:06;22.10;93.50
8872;DHT22;4472;52.092;9.820;2023-06-26T18:20:53;22.40;94.20
8872;DHT22;4472;52.092;9.820;2023-06-26T18:23:41;21.90;94.20